Time;durP1;ratioP1;P1;durP2;ratioP2;P2;SDS_P1;SDS_P2;PMS_P1;PMS_P2;Temp;Humidity;BMP_temperature;BMP_pressure;BME280_temperature;BME280_humidity;BME280_pressure;Samples;Min_cycle;Max_cycle;Signal;HPM_P1;HPM_P2
2024/01/14 00:01:53;;;;;;;1.00;0.87;;;20.20;54.10;;;;;;5093568;28;20208;-68
2024/01/14 00:04:19;;;;;;;0.97;0.70;;;20.20;54.10;;;;;;5093676;28;20165;-68
2024/01/14 00:06:45;;;;;;;1.07;0.73;;;20.20;54.10;;;;;;5093702;28;20503;-67
2024/01/14 00:09:11;;;;;;;1.00;0.87;;;20.20;54.10;;;;;;5093609;28;20288;-68
2024/01/14 00:11:37;;;;;;;1.07;0.70;;;20.20;54.10;;;;;;5093683;28;20488;-68
2024/01/14 00:14:03;;;;;;;1.20;0.90;;;20.20;54.10;;;;;;5093363;28;20407;-68
2024/01/14 00:16:34;;;;;;;1.00;0.80;;;20.20;54.10;;;;;;5093379;28;20190;-68
2024/01/14 00:19:03;;;;;;;1.10;0.83;;;20.20;54.10;;;;;;5093387;28;20205;-67
2024/01/14 00:21:29;;;;;;;1.20;1.00;;;20.20;54.10;;;;;;5093148;28;20463;-69
2024/01/14 00:23:55;;;;;;;1.00;0.90;;;20.20;54.10;;;;;;5093141;28;20399;-68
2024/01/14 00:26:24;;;;;;;1.30;0.90;;;20.20;54.20;;;;;;5093219;28;20515;-68
2024/01/14 00:28:53;;;;;;;0.97;0.80;;;20.10;54.60;;;;;;5093112;28;20692;-67
2024/01/14 00:31:19;;;;;;;1.00;0.90;;;20.20;54.10;;;;;;5093170;28;20448;-68
2024/01/14 00:33:44;;;;;;;1.10;0.80;;;20.10;54.00;;;;;;5074754;28;20450;-69
2024/01/14 00:36:10;;;;;;;1.10;0.70;;;20.10;54.00;;;;;;5092931;28;20192;-68
2024/01/14 00:38:36;;;;;;;1.20;0.80;;;20.10;54.00;;;;;;5092916;28;20703;-68
2024/01/14 00:41:01;;;;;;;1.00;0.70;;;20.10;54.10;;;;;;5092855;28;20187;-68
2024/01/14 00:43:27;;;;;;;1.00;0.80;;;20.10;54.10;;;;;;5092874;28;20161;-69
2024/01/14 00:45:53;;;;;;;0.80;0.70;;;20.20;54.20;;;;;;5092589;28;20258;-68
2024/01/14 00:48:19;;;;;;;1.17;0.87;;;20.20;54.20;;;;;;5074588;28;20173;-68
2024/01/14 00:50:44;;;;;;;1.23;1.07;;;20.10;54.10;;;;;;5092706;28;20404;-69
2024/01/14 00:53:10;;;;;;;1.17;0.70;;;20.10;54.10;;;;;;5092775;28;20251;-68
2024/01/14 00:55:36;;;;;;;1.40;1.13;;;20.10;54.10;;;;;;5092687;28;20272;-68
2024/01/14 00:58:02;;;;;;;1.20;0.80;;;20.10;54.10;;;;;;5092570;28;20262;-68
2024/01/14 01:00:28;;;;;;;1.40;0.97;;;20.10;54.10;;;;;;5092576;28;20412;-68
2024/01/14 01:02:53;;;;;;;1.20;1.10;;;20.10;54.10;;;;;;5092453;28;20246;-68
2024/01/14 01:05:19;;;;;;;1.00;0.87;;;20.10;54.10;;;;;;5092418;28;20169;-67
2024/01/14 01:07:45;;;;;;;1.40;1.00;;;20.10;54.10;;;;;;5092416;28;20256;-68
2024/01/14 01:10:11;;;;;;;1.10;0.90;;;20.10;54.10;;;;;;5092320;28;20204;-67
2024/01/14 01:12:37;;;;;;;1.07;0.90;;;20.10;54.10;;;;;;5092561;28;20850;-68
2024/01/14 01:15:05;;;;;;;1.10;0.90;;;20.10;54.10;;;;;;5092526;28;20454;-67
2024/01/14 01:17:31;;;;;;;1.20;0.90;;;20.10;54.10;;;;;;5092109;28;20233;-69
2024/01/14 01:19:58;;;;;;;1.03;0.90;;;20.10;54.10;;;;;;5092162;28;20434;-68
2024/01/14 01:22:23;;;;;;;1.03;0.90;;;20.10;54.10;;;;;;5092165;28;20899;-69
2024/01/14 01:24:49;;;;;;;1.10;0.90;;;20.10;54.10;;;;;;5092114;28;20475;-69
2024/01/14 01:27:15;;;;;;;0.93;0.70;;;20.10;54.10;;;;;;5092233;28;20513;-68
2024/01/14 01:29:41;;;;;;;1.30;0.87;;;20.10;54.10;;;;;;5092114;28;20435;-67
2024/01/14 01:32:06;;;;;;;1.20;1.10;;;20.10;54.10;;;;;;5091913;28;20172;-68
2024/01/14 01:34:32;;;;;;;1.60;0.80;;;20.10;54.10;;;;;;5091866;28;20936;-68
2024/01/14 01:36:58;;;;;;;0.90;0.70;;;20.00;54.00;;;;;;5091998;28;20173;-68
2024/01/14 01:39:23;;;;;;;1.10;0.90;;;20.10;54.10;;;;;;5091715;28;20193;-68
2024/01/14 01:41:50;;;;;;;1.10;0.80;;;20.10;54.10;;;;;;5091912;28;20205;-68
2024/01/14 01:44:16;;;;;;;1.20;0.80;;;20.00;54.00;;;;;;5091711;28;20249;-68
2024/01/14 01:46:42;;;;;;;1.63;1.00;;;20.10;54.10;;;;;;5091685;28;20886;-68
2024/01/14 01:49:09;;;;;;;0.90;0.70;;;20.10;54.10;;;;;;5091531;28;20185;-67
2024/01/14 01:51:35;;;;;;;1.10;0.90;;;20.00;54.00;;;;;;5091568;28;20576;-69
2024/01/14 01:54:01;;;;;;;1.20;0.80;;;20.10;54.10;;;;;;5091481;28;20457;-68
2024/01/14 01:56:27;;;;;;;1.00;0.80;;;20.10;54.10;;;;;;5090716;28;20403;-68
2024/01/14 01:58:53;;;;;;;0.90;0.70;;;20.10;54.10;;;;;;5091388;28;20200;-68
2024/01/14 02:01:21;;;;;;;1.20;0.90;;;20.10;54.10;;;;;;5091264;28;20843;-67
2024/01/14 02:03:50;;;;;;;1.30;0.90;;;20.10;54.10;;;;;;5091286;28;20165;-68
2024/01/14 02:06:16;;;;;;;1.13;0.90;;;20.10;54.10;;;;;;5091242;28;20410;-68
2024/01/14 02:08:42;;;;;;;1.23;0.90;;;20.10;54.10;;;;;;5091114;28;20436;-68
2024/01/14 02:11:08;;;;;;;0.93;0.80;;;20.00;54.10;;;;;;5091236;28;20461;-68
2024/01/14 02:13:34;;;;;;;1.00;0.70;;;20.00;54.10;;;;;;5091060;28;20253;-68
2024/01/14 02:15:59;;;;;;;1.10;0.70;;;20.00;54.60;;;;;;5091302;28;20514;-68
2024/01/14 02:18:25;;;;;;;1.17;0.93;;;20.00;54.10;;;;;;5090907;28;20351;-68
2024/01/14 02:20:51;;;;;;;1.30;0.93;;;20.00;54.10;;;;;;5091076;28;20186;-68
2024/01/14 02:23:20;;;;;;;1.00;0.67;;;20.00;54.10;;;;;;5091204;28;20192;-68
2024/01/14 02:25:46;;;;;;;1.10;0.90;;;20.00;54.10;;;;;;5090869;28;20246;-68
2024/01/14 02:28:14;;;;;;;1.00;0.80;;;20.00;54.10;;;;;;5090745;28;20914;-68
2024/01/14 02:30:40;;;;;;;0.93;0.70;;;20.00;54.10;;;;;;5090758;28;20701;-68
2024/01/14 02:33:07;;;;;;;1.00;0.70;;;20.00;54.10;;;;;;5091007;28;20407;-68
2024/01/14 02:35:33;;;;;;;1.10;0.77;;;20.00;54.10;;;;;;5090667;28;20170;-68
2024/01/14 02:37:58;;;;;;;1.40;1.00;;;20.00;54.10;;;;;;5090666;28;20419;-69
2024/01/14 02:40:24;;;;;;;1.20;1.00;;;20.00;54.10;;;;;;5090657;28;20190;-68
2024/01/14 02:42:50;;;;;;;1.00;0.80;;;20.00;54.10;;;;;;5090522;28;20232;-69
2024/01/14 02:45:16;;;;;;;1.17;0.83;;;20.00;54.10;;;;;;5090578;28;20933;-68
2024/01/14 02:47:41;;;;;;;1.10;0.80;;;20.00;54.10;;;;;;5090483;28;20169;-68
2024/01/14 02:50:07;;;;;;;1.20;0.90;;;20.00;54.10;;;;;;5090465;28;21235;-68
2024/01/14 02:52:33;;;;;;;1.10;0.80;;;20.00;54.10;;;;;;5090424;28;20181;-68
2024/01/14 02:54:58;;;;;;;1.03;0.90;;;20.00;54.10;;;;;;5090389;28;20180;-68
2024/01/14 02:57:24;;;;;;;0.93;0.80;;;20.00;54.10;;;;;;5090370;28;20178;-68
2024/01/14 02:59:50;;;;;;;1.03;0.60;;;20.00;54.10;;;;;;5090453;28;20285;-68
2024/01/14 03:02:16;;;;;;;1.17;0.80;;;20.00;54.10;;;;;;5090205;28;20735;-68
2024/01/14 03:04:42;;;;;;;0.90;0.80;;;20.00;54.10;;;;;;5090296;28;20616;-67
2024/01/14 03:07:08;;;;;;;0.90;0.80;;;20.00;54.10;;;;;;5090165;28;20415;-68
2024/01/14 03:09:34;;;;;;;1.00;0.70;;;20.00;54.10;;;;;;5090172;28;20964;-66
2024/01/14 03:11:59;;;;;;;1.00;0.80;;;20.00;54.10;;;;;;5090165;28;20172;-69
2024/01/14 03:14:25;;;;;;;1.00;0.80;;;20.00;54.10;;;;;;5090157;28;20169;-69
2024/01/14 03:16:50;;;;;;;1.00;0.80;;;20.00;54.10;;;;;;5090055;28;20238;-68
2024/01/14 03:19:16;;;;;;;1.00;0.70;;;20.00;54.10;;;;;;5090360;28;20955;-67
2024/01/14 03:21:42;;;;;;;1.00;0.80;;;20.00;54.10;;;;;;5090001;28;20607;-69
2024/01/14 03:24:08;;;;;;;1.20;0.90;;;20.00;54.10;;;;;;5090028;28;20218;-67
2024/01/14 03:26:33;;;;;;;1.43;0.90;;;20.00;54.10;;;;;;5090143;28;20166;-68
2024/01/14 03:28:59;;;;;;;1.10;1.00;;;20.00;54.10;;;;;;5090186;28;20217;-68
2024/01/14 03:31:25;;;;;;;1.10;0.83;;;20.00;54.10;;;;;;5090274;28;20177;-68
2024/01/14 03:33:50;;;;;;;1.10;0.90;;;20.00;54.10;;;;;;5089933;28;20177;-68
2024/01/14 03:36:16;;;;;;;1.00;0.80;;;19.90;54.00;;;;;;5090120;28;20174;-69
2024/01/14 03:38:43;;;;;;;1.00;0.90;;;19.90;54.00;;;;;;5071651;28;20645;-68
2024/01/14 03:41:08;;;;;;;1.13;0.90;;;20.00;54.10;;;;;;5089805;28;20202;-68
2024/01/14 03:43:34;;;;;;;1.20;0.90;;;20.00;54.10;;;;;;5089886;28;20443;-69
2024/01/14 03:45:59;;;;;;;0.90;0.70;;;20.00;54.10;;;;;;5090084;28;20231;-68
2024/01/14 03:48:25;;;;;;;1.57;0.90;;;20.00;54.10;;;;;;5089676;28;20190;-67
2024/01/14 03:50:51;;;;;;;1.10;0.80;;;20.00;54.10;;;;;;5089738;28;20201;-69
2024/01/14 03:53:16;;;;;;;1.00;0.90;;;19.90;54.00;;;;;;5089748;28;20205;-69
2024/01/14 03:55:42;;;;;;;0.90;0.70;;;20.00;54.10;;;;;;5089787;28;20252;-70
2024/01/14 03:58:08;;;;;;;1.00;0.80;;;20.00;54.10;;;;;;5089960;28;20247;-68
2024/01/14 04:00:34;;;;;;;1.00;0.80;;;20.00;54.10;;;;;;5089632;28;20400;-68
2024/01/14 04:03:00;;;;;;;1.00;0.80;;;20.00;54.10;;;;;;5089577;28;20189;-69
2024/01/14 04:05:25;;;;;;;1.00;0.80;;;20.00;54.10;;;;;;5089624;28;20173;-69
2024/01/14 04:07:51;;;;;;;1.20;1.03;;;20.00;54.10;;;;;;5089604;28;20166;-69
2024/01/14 04:10:16;;;;;;;1.00;0.77;;;19.90;54.00;;;;;;5089470;28;20318;-69
2024/01/14 04:12:42;;;;;;;1.30;0.90;;;19.90;54.00;;;;;;5089553;28;20166;-68
2024/01/14 04:15:09;;;;;;;0.97;0.77;;;19.90;54.00;;;;;;5089621;28;20169;-69
2024/01/14 04:17:34;;;;;;;1.50;0.90;;;19.90;54.00;;;;;;5089652;28;20907;-67
2024/01/14 04:20:01;;;;;;;0.90;0.70;;;19.90;54.00;;;;;;5091253;28;20425;-69
2024/01/14 04:22:26;;;;;;;1.30;0.90;;;19.90;54.00;;;;;;5093063;28;20200;-69
2024/01/14 04:24:52;;;;;;;1.13;0.90;;;20.00;54.10;;;;;;5093287;28;20770;-68
2024/01/14 04:27:18;;;;;;;1.03;0.70;;;19.90;54.00;;;;;;5093053;28;20196;-67
2024/01/14 04:29:43;;;;;;;1.37;0.87;;;19.90;54.00;;;;;;5092994;28;20294;-68
2024/01/14 04:32:09;;;;;;;1.17;0.70;;;19.90;54.00;;;;;;5093226;28;20196;-68
2024/01/14 04:34:36;;;;;;;1.10;0.80;;;19.90;54.00;;;;;;5092863;28;20667;-68
2024/01/14 04:37:02;;;;;;;1.53;0.90;;;19.90;54.00;;;;;;5092903;28;20408;-68
2024/01/14 04:39:27;;;;;;;0.93;0.80;;;19.90;54.00;;;;;;5092683;28;20830;-68
2024/01/14 04:41:53;;;;;;;0.90;0.70;;;19.90;54.00;;;;;;5092648;28;20204;-68
2024/01/14 04:44:18;;;;;;;1.00;0.87;;;19.90;54.00;;;;;;5092712;28;20174;-68
2024/01/14 04:46:45;;;;;;;0.93;0.70;;;19.90;54.00;;;;;;5092696;28;20178;-68
2024/01/14 04:49:11;;;;;;;1.00;0.80;;;19.90;54.00;;;;;;5092536;28;20193;-66
2024/01/14 04:51:37;;;;;;;1.00;0.80;;;19.90;54.00;;;;;;5092515;28;20494;-68
2024/01/14 04:54:03;;;;;;;1.10;0.90;;;19.90;54.00;;;;;;5092547;28;20295;-68
2024/01/14 04:56:29;;;;;;;1.00;0.80;;;19.90;54.00;;;;;;5092506;28;20898;-69
2024/01/14 04:58:54;;;;;;;1.30;0.90;;;19.90;54.00;;;;;;5092423;28;20228;-68
2024/01/14 05:01:20;;;;;;;1.00;0.80;;;19.90;54.00;;;;;;5092382;28;21374;-68
2024/01/14 05:03:46;;;;;;;1.00;0.70;;;19.90;54.00;;;;;;5092370;28;20173;-68
2024/01/14 05:06:12;;;;;;;1.30;0.70;;;19.90;54.00;;;;;;5092365;28;20260;-68
2024/01/14 05:08:40;;;;;;;1.10;0.70;;;19.90;54.00;;;;;;5092200;28;20224;-69
2024/01/14 05:11:06;;;;;;;0.90;0.80;;;19.90;54.00;;;;;;5092174;28;20181;-69
2024/01/14 05:13:32;;;;;;;1.10;0.80;;;19.90;54.00;;;;;;5073945;28;20423;-69
2024/01/14 05:15:57;;;;;;;0.90;0.80;;;19.90;54.00;;;;;;5092046;28;20310;-69
2024/01/14 05:18:23;;;;;;;1.20;1.00;;;19.90;54.00;;;;;;5091921;28;20287;-68
2024/01/14 05:20:48;;;;;;;1.10;0.90;;;19.90;54.00;;;;;;5073784;28;20238;-69
2024/01/14 05:23:14;;;;;;;1.20;1.00;;;19.90;54.00;;;;;;5073750;28;20973;-68
2024/01/14 05:25:39;;;;;;;1.07;0.70;;;19.90;54.00;;;;;;5092146;28;20223;-68
2024/01/14 05:28:05;;;;;;;1.00;0.70;;;19.90;54.00;;;;;;5091889;28;20178;-68
2024/01/14 05:30:31;;;;;;;1.00;0.70;;;19.90;54.00;;;;;;5091138;28;20162;-69
2024/01/14 05:32:57;;;;;;;1.10;0.80;;;19.90;54.00;;;;;;5091675;28;20185;-68
2024/01/14 05:35:22;;;;;;;0.97;0.70;;;19.90;54.00;;;;;;5091740;28;20205;-68
2024/01/14 05:37:48;;;;;;;1.30;0.90;;;19.90;54.00;;;;;;5073524;28;20181;-69
2024/01/14 05:40:14;;;;;;;1.20;0.90;;;19.90;54.00;;;;;;5091604;28;20737;-69
2024/01/14 05:42:40;;;;;;;0.97;0.80;;;19.90;54.00;;;;;;5091579;28;20197;-68
2024/01/14 05:45:07;;;;;;;0.90;0.70;;;19.90;54.00;;;;;;5091556;28;20214;-69
2024/01/14 05:47:33;;;;;;;1.00;0.80;;;19.90;54.00;;;;;;5091527;28;20437;-68
2024/01/14 05:49:59;;;;;;;1.30;0.90;;;19.90;54.00;;;;;;5091406;28;20431;-69
2024/01/14 05:52:25;;;;;;;0.90;0.70;;;19.90;54.60;;;;;;5091358;28;20170;-69
2024/01/14 05:54:51;;;;;;;1.27;0.97;;;19.90;54.00;;;;;;5091431;28;20419;-68
2024/01/14 05:57:17;;;;;;;1.33;1.03;;;19.80;53.90;;;;;;5073009;28;20806;-67
2024/01/14 05:59:43;;;;;;;1.00;0.83;;;19.90;54.00;;;;;;5081144;28;20319;-68
2024/01/14 06:02:09;;;;;;;1.13;0.90;;;19.90;54.00;;;;;;5071133;28;20206;-69
2024/01/14 06:04:34;;;;;;;0.93;0.70;;;19.90;54.00;;;;;;5070963;28;20416;-68
2024/01/14 06:07:00;;;;;;;1.00;0.77;;;19.90;54.00;;;;;;5070935;28;20413;-69
2024/01/14 06:09:26;;;;;;;1.07;0.87;;;19.90;54.00;;;;;;5070754;28;20569;-68
2024/01/14 06:11:51;;;;;;;1.53;0.90;;;19.90;54.00;;;;;;5070812;28;20178;-69
2024/01/14 06:14:17;;;;;;;1.20;1.00;;;19.90;54.00;;;;;;5070754;28;20584;-69
2024/01/14 06:16:42;;;;;;;1.40;1.00;;;19.90;54.00;;;;;;5070645;28;20519;-69
2024/01/14 06:19:08;;;;;;;0.97;0.80;;;19.90;54.00;;;;;;5070615;28;20332;-69
2024/01/14 06:21:40;;;;;;;1.20;0.80;;;19.80;53.90;;;;;;5070532;28;20204;-69
2024/01/14 06:24:06;;;;;;;1.30;0.80;;;19.80;53.90;;;;;;5070857;28;20224;-69
2024/01/14 06:26:31;;;;;;;0.80;0.70;;;19.80;53.90;;;;;;5070490;28;20857;-68
2024/01/14 06:28:57;;;;;;;1.10;0.80;;;19.80;54.00;;;;;;5070375;28;20307;-69
2024/01/14 06:31:22;;;;;;;1.20;1.00;;;19.90;54.00;;;;;;5070786;28;20633;-68
2024/01/14 06:33:48;;;;;;;2.10;1.20;;;19.90;54.00;;;;;;5070426;28;20178;-69
2024/01/14 06:36:14;;;;;;;1.17;0.97;;;19.90;54.00;;;;;;5070462;28;20193;-69
2024/01/14 06:38:39;;;;;;;1.20;1.00;;;19.90;54.00;;;;;;5070369;28;20208;-68
2024/01/14 06:41:05;;;;;;;0.97;0.80;;;19.90;54.00;;;;;;5070342;28;20256;-68
2024/01/14 06:43:30;;;;;;;1.00;0.80;;;19.90;54.00;;;;;;5070219;28;20174;-69
2024/01/14 06:45:56;;;;;;;1.00;0.70;;;19.90;54.00;;;;;;5070267;28;20197;-68
2024/01/14 06:48:22;;;;;;;1.27;1.00;;;19.90;54.00;;;;;;5070375;28;20228;-69
2024/01/14 06:50:49;;;;;;;1.00;0.80;;;19.90;54.00;;;;;;5070205;28;20648;-69
2024/01/14 06:53:15;;;;;;;1.20;0.80;;;19.90;54.00;;;;;;5070170;28;20256;-67
2024/01/14 06:55:40;;;;;;;1.07;0.70;;;19.90;54.00;;;;;;5070140;28;20834;-69
2024/01/14 06:58:06;;;;;;;1.13;0.87;;;19.90;54.00;;;;;;5070060;28;20174;-69
2024/01/14 07:00:32;;;;;;;1.00;0.80;;;19.90;54.00;;;;;;5052269;28;20194;-69
2024/01/14 07:02:57;;;;;;;0.87;0.63;;;20.00;54.10;;;;;;5070320;28;20574;-69
2024/01/14 07:05:23;;;;;;;0.80;0.60;;;20.00;54.10;;;;;;5070066;28;20171;-69
2024/01/14 07:07:49;;;;;;;1.03;0.80;;;20.10;54.20;;;;;;5070025;28;20177;-68
2024/01/14 07:10:14;;;;;;;1.00;0.70;;;20.10;54.10;;;;;;5069995;28;20661;-68
2024/01/14 07:12:40;;;;;;;1.40;0.90;;;20.10;54.10;;;;;;5069942;28;20253;-69
2024/01/14 07:15:06;;;;;;;0.90;0.67;;;20.10;54.00;;;;;;5070060;28;20182;-68
2024/01/14 07:17:32;;;;;;;1.10;0.83;;;20.20;54.10;;;;;;5069897;28;20728;-69
2024/01/14 07:20:01;;;;;;;0.80;0.60;;;20.20;54.00;;;;;;5051690;28;20524;-69
2024/01/14 07:22:26;;;;;;;1.00;0.70;;;20.20;54.00;;;;;;5069874;28;20681;-69
2024/01/14 07:24:52;;;;;;;1.00;0.80;;;20.20;54.00;;;;;;5069689;28;20497;-68
2024/01/14 07:27:18;;;;;;;1.00;0.70;;;20.20;53.90;;;;;;5069816;28;20170;-68
2024/01/14 07:29:43;;;;;;;1.00;0.70;;;20.30;54.00;;;;;;5069639;28;20267;-69
2024/01/14 07:32:09;;;;;;;1.07;0.83;;;20.30;54.00;;;;;;5070081;28;20174;-69
2024/01/14 07:34:37;;;;;;;1.30;0.83;;;20.30;53.90;;;;;;5069763;28;20174;-68
2024/01/14 07:37:03;;;;;;;1.00;0.70;;;20.30;53.90;;;;;;5070078;28;20182;-68
2024/01/14 07:39:29;;;;;;;1.10;0.80;;;20.30;53.90;;;;;;5069945;28;20467;-69
2024/01/14 07:41:54;;;;;;;0.83;0.63;;;20.40;54.00;;;;;;5035087;28;20202;-68
2024/01/14 07:44:20;;;;;;;1.10;0.90;;;20.40;53.90;;;;;;5070067;28;20178;-69
2024/01/14 07:46:46;;;;;;;1.10;0.90;;;20.40;53.90;;;;;;5069886;28;20170;-68
2024/01/14 07:49:11;;;;;;;1.03;0.77;;;20.40;53.90;;;;;;5069568;28;20194;-69
2024/01/14 07:51:37;;;;;;;0.90;0.70;;;20.40;53.80;;;;;;5069583;28;20182;-69
2024/01/14 07:54:02;;;;;;;1.17;0.80;;;20.40;53.80;;;;;;5069939;28;20871;-68
2024/01/14 07:56:28;;;;;;;1.00;0.73;;;20.40;53.80;;;;;;5073376;28;20212;-69
2024/01/14 07:58:53;;;;;;;0.97;0.80;;;20.40;53.80;;;;;;5073299;28;20202;-69
2024/01/14 08:01:19;;;;;;;1.10;0.80;;;20.50;53.90;;;;;;5073199;28;20552;-68
2024/01/14 08:03:46;;;;;;;1.00;0.70;;;20.50;53.90;;;;;;5073293;28;20192;-69
2024/01/14 08:06:12;;;;;;;0.87;0.70;;;20.50;53.90;;;;;;5073126;28;20177;-69
2024/01/14 08:08:37;;;;;;;1.07;0.80;;;20.50;53.90;;;;;;5092559;28;21092;-69
2024/01/14 08:11:03;;;;;;;1.20;0.80;;;20.50;53.90;;;;;;5092803;28;20185;-69
2024/01/14 08:13:28;;;;;;;1.10;0.73;;;20.50;53.90;;;;;;5092809;28;20943;-69
2024/01/14 08:15:54;;;;;;;1.57;0.80;;;20.50;53.80;;;;;;5093147;28;20177;-69
2024/01/14 08:18:20;;;;;;;0.90;0.77;;;20.50;53.80;;;;;;5093091;28;20310;-69
2024/01/14 08:20:47;;;;;;;1.10;0.77;;;20.50;53.80;;;;;;5093411;28;20185;-69
2024/01/14 08:23:13;;;;;;;0.87;0.70;;;20.50;53.80;;;;;;5093280;28;20207;-69
2024/01/14 08:25:39;;;;;;;1.00;0.70;;;20.50;53.80;;;;;;5093129;28;20407;-69
2024/01/14 08:28:05;;;;;;;1.07;0.77;;;20.50;53.80;;;;;;5092997;28;20170;-69
2024/01/14 08:30:30;;;;;;;1.00;0.70;;;20.50;53.80;;;;;;5092954;28;20987;-69
2024/01/14 08:32:56;;;;;;;1.00;0.80;;;20.50;54.30;;;;;;5074845;28;20177;-69
2024/01/14 08:35:24;;;;;;;1.87;0.87;;;20.50;53.80;;;;;;5092976;28;20177;-68
2024/01/14 08:37:49;;;;;;;1.00;0.70;;;20.50;53.80;;;;;;5092841;28;20177;-69
2024/01/14 08:40:15;;;;;;;0.93;0.67;;;20.50;53.80;;;;;;5092797;28;20454;-69
2024/01/14 08:42:44;;;;;;;1.10;0.83;;;20.50;53.80;;;;;;5092991;28;20206;-68
2024/01/14 08:45:13;;;;;;;1.00;0.80;;;20.50;53.80;;;;;;5092751;28;20230;-69
2024/01/14 08:47:39;;;;;;;1.00;0.70;;;20.50;53.80;;;;;;5092699;28;20464;-69
2024/01/14 08:50:09;;;;;;;0.90;0.70;;;20.50;53.80;;;;;;5093132;28;20837;-69
2024/01/14 08:52:36;;;;;;;1.00;0.80;;;20.50;53.80;;;;;;5092599;28;20446;-69
2024/01/14 08:55:03;;;;;;;0.90;0.70;;;20.50;53.80;;;;;;5092542;28;20416;-69
2024/01/14 08:57:29;;;;;;;0.90;0.70;;;20.50;53.80;;;;;;5092568;28;20446;-69
2024/01/14 08:59:56;;;;;;;1.27;0.90;;;20.50;53.80;;;;;;5092431;28;20510;-69
2024/01/14 09:02:22;;;;;;;0.90;0.80;;;20.60;53.90;;;;;;5092319;28;20288;-69
2024/01/14 09:04:47;;;;;;;1.20;0.80;;;20.50;53.90;;;;;;5092112;28;20506;-70
2024/01/14 09:07:13;;;;;;;1.00;0.90;;;20.60;53.90;;;;;;5092252;28;20239;-69
2024/01/14 09:09:38;;;;;;;0.90;0.60;;;20.60;53.90;;;;;;5092374;28;20237;-68
2024/01/14 09:12:04;;;;;;;1.10;0.70;;;20.50;53.80;;;;;;5092285;28;20169;-70
2024/01/14 09:14:30;;;;;;;0.90;0.70;;;20.50;53.80;;;;;;5092271;28;20217;-69
2024/01/14 09:16:55;;;;;;;0.97;0.70;;;20.50;53.90;;;;;;5092284;28;20623;-70
2024/01/14 09:19:21;;;;;;;0.80;0.60;;;20.50;54.40;;;;;;5092072;28;20579;-68
2024/01/14 09:21:46;;;;;;;0.97;0.70;;;20.50;53.80;;;;;;5092280;28;20190;-69
2024/01/14 09:24:12;;;;;;;1.30;0.90;;;20.50;53.80;;;;;;5091117;28;20576;-69
2024/01/14 09:26:37;;;;;;;1.00;0.80;;;20.50;53.80;;;;;;5092023;28;20173;-69
2024/01/14 09:29:03;;;;;;;1.00;0.70;;;20.50;53.80;;;;;;5092169;28;20236;-69
2024/01/14 09:31:28;;;;;;;0.80;0.73;;;20.60;53.90;;;;;;5092272;28;20504;-70
2024/01/14 09:33:54;;;;;;;1.20;0.90;;;20.50;53.90;;;;;;5091933;28;20268;-69
2024/01/14 09:36:20;;;;;;;1.30;0.80;;;20.50;53.90;;;;;;5091789;28;20189;-69
2024/01/14 09:38:45;;;;;;;0.90;0.70;;;20.50;53.90;;;;;;5091931;28;20620;-70
2024/01/14 09:41:25;;;;;;;1.00;0.90;;;20.50;53.90;;;;;;5091670;28;20204;-71
2024/01/14 09:43:51;;;;;;;1.10;0.80;;;20.50;53.90;;;;;;5091753;28;20651;-69
2024/01/14 09:46:18;;;;;;;0.97;0.70;;;20.50;53.90;;;;;;5091879;28;20408;-69
2024/01/14 09:48:48;;;;;;;1.07;0.90;;;20.50;53.90;;;;;;5091760;28;20439;-68
2024/01/14 09:51:17;;;;;;;1.10;0.80;;;20.60;54.00;;;;;;5091799;28;20404;-70
2024/01/14 09:53:43;;;;;;;1.07;0.80;;;20.50;54.00;;;;;;5091504;28;20412;-69
2024/01/14 09:56:10;;;;;;;1.13;0.80;;;20.50;54.00;;;;;;5091518;28;20821;-70
2024/01/14 09:58:39;;;;;;;1.00;0.80;;;20.50;54.00;;;;;;5091310;28;20854;-67
2024/01/14 10:01:08;;;;;;;1.20;0.80;;;20.50;54.00;;;;;;5091383;28;20403;-68
2024/01/14 10:03:34;;;;;;;1.00;0.70;;;20.50;54.00;;;;;;5091432;28;20411;-68
2024/01/14 10:06:01;;;;;;;1.00;0.80;;;20.50;54.00;;;;;;5091182;28;20434;-69
2024/01/14 10:08:27;;;;;;;1.17;0.80;;;20.50;54.50;;;;;;5091166;28;20269;-68
2024/01/14 10:10:53;;;;;;;1.10;0.80;;;20.50;54.00;;;;;;5091043;28;21005;-68
2024/01/14 10:13:21;;;;;;;1.07;0.83;;;20.50;54.00;;;;;;5091106;28;20166;-69
2024/01/14 10:15:48;;;;;;;0.80;0.70;;;20.50;54.00;;;;;;5091061;28;20776;-70
2024/01/14 10:18:13;;;;;;;1.00;0.80;;;20.50;54.00;;;;;;5090347;28;20479;-70
2024/01/14 10:20:39;;;;;;;1.00;0.80;;;20.60;54.10;;;;;;5091622;28;20466;-69
2024/01/14 10:23:05;;;;;;;1.07;0.70;;;20.50;54.00;;;;;;5091402;28;20326;-71
2024/01/14 10:25:31;;;;;;;0.90;0.70;;;20.50;54.00;;;;;;5091001;28;20170;-69
2024/01/14 10:28:01;;;;;;;1.13;0.70;;;20.50;54.00;;;;;;5090128;28;20415;-68
2024/01/14 10:30:27;;;;;;;0.90;0.67;;;20.50;54.00;;;;;;5091351;28;20158;-71
2024/01/14 10:32:53;;;;;;;1.10;0.80;;;20.50;54.00;;;;;;5091274;28;20414;-68
2024/01/14 10:35:19;;;;;;;0.90;0.70;;;20.50;54.00;;;;;;5090934;28;20596;-70
2024/01/14 10:37:45;;;;;;;1.13;0.90;;;20.50;54.00;;;;;;5090737;28;20695;-69
2024/01/14 10:40:12;;;;;;;1.00;0.80;;;20.60;54.10;;;;;;5090556;28;20223;-69
2024/01/14 10:42:38;;;;;;;1.00;0.70;;;20.50;54.00;;;;;;5072390;28;20456;-70
2024/01/14 10:45:07;;;;;;;1.00;0.80;;;20.50;54.00;;;;;;5090648;28;20784;-67
2024/01/14 10:47:37;;;;;;;0.93;0.70;;;20.50;54.00;;;;;;5090597;28;20181;-70
2024/01/14 10:50:03;;;;;;;1.00;0.80;;;20.50;54.10;;;;;;5090459;28;20416;-68
2024/01/14 10:52:36;;;;;;;1.93;1.00;;;20.50;54.00;;;;;;5077218;28;20424;-66
2024/01/14 10:55:26;;;;;;;0.90;0.80;;;20.50;54.10;;;;;;5094814;28;20418;-67
2024/01/14 10:57:53;;;;;;;1.10;0.90;;;20.50;54.00;;;;;;5077812;28;20408;-66
2024/01/14 11:00:19;;;;;;;1.03;0.77;;;20.50;54.10;;;;;;5092828;28;20435;-68
2024/01/14 11:02:45;;;;;;;1.00;0.70;;;20.50;54.10;;;;;;5090445;28;20455;-68
2024/01/14 11:05:12;;;;;;;0.90;0.70;;;20.50;54.10;;;;;;5090336;28;20480;-69
2024/01/14 11:07:38;;;;;;;0.90;0.70;;;20.50;54.10;;;;;;5090513;28;20404;-69
2024/01/14 11:10:10;;;;;;;0.90;0.70;;;20.50;54.10;;;;;;5090297;28;20811;-68
2024/01/14 11:13:08;;;;;;;1.00;0.70;;;20.50;54.10;;;;;;5090367;28;20396;-68
2024/01/14 11:15:57;;;;;;;1.00;0.87;;;20.50;54.00;;;;;;5090435;28;20424;-68
2024/01/14 11:18:45;;;;;;;0.90;0.60;;;20.50;54.00;;;;;;5074755;28;20973;-68
2024/01/14 11:21:33;;;;;;;1.20;0.80;;;20.50;54.10;;;;;;5090252;28;20419;-67
2024/01/14 11:23:59;;;;;;;0.83;0.67;;;20.50;54.10;;;;;;5090191;28;20411;-67
2024/01/14 11:26:25;;;;;;;1.00;0.80;;;20.40;54.00;;;;;;5090901;28;20415;-68
2024/01/14 11:28:51;;;;;;;0.90;0.70;;;20.50;54.10;;;;;;5090434;28;20443;-69
2024/01/14 11:31:17;;;;;;;1.00;0.80;;;20.40;54.10;;;;;;5095190;28;20264;-68
2024/01/14 11:33:46;;;;;;;1.00;0.70;;;20.40;54.10;;;;;;5094343;28;20494;-69
2024/01/14 11:36:12;;;;;;;0.80;0.60;;;20.40;54.00;;;;;;5094645;28;20174;-69
2024/01/14 11:38:54;;;;;;;1.00;0.77;;;20.40;54.00;;;;;;5094712;28;20427;-69
2024/01/14 11:41:32;;;;;;;0.93;0.70;;;20.50;54.10;;;;;;5094832;28;20403;-69
2024/01/14 11:44:11;;;;;;;1.20;1.00;;;20.40;54.30;;;;;;5094566;28;20872;-69
2024/01/14 11:46:40;;;;;;;1.17;0.73;;;20.40;54.00;;;;;;5097648;28;20487;-69
2024/01/14 11:49:10;;;;;;;1.00;0.70;;;20.50;54.10;;;;;;5094382;28;20908;-67
2024/01/14 11:51:43;;;;;;;0.90;0.80;;;20.40;54.10;;;;;;5094292;28;20768;-69
2024/01/14 11:54:12;;;;;;;0.90;0.70;;;20.50;54.10;;;;;;5094834;28;20395;-68
2024/01/14 11:56:39;;;;;;;1.00;0.77;;;20.40;54.10;;;;;;5094165;28;20411;-69
2024/01/14 11:59:08;;;;;;;0.90;0.70;;;20.40;54.10;;;;;;5094282;28;20430;-69
2024/01/14 12:01:35;;;;;;;0.80;0.70;;;20.40;54.10;;;;;;5093716;28;20447;-69
2024/01/14 12:04:02;;;;;;;0.90;0.70;;;20.50;54.10;;;;;;5094120;28;20407;-69
2024/01/14 12:06:28;;;;;;;0.90;0.70;;;20.40;54.10;;;;;;5094271;28;21060;-69
2024/01/14 12:09:00;;;;;;;1.10;0.80;;;20.50;54.10;;;;;;5093820;28;20423;-68
2024/01/14 12:11:26;;;;;;;0.97;0.70;;;20.50;54.10;;;;;;5094030;28;20399;-68
2024/01/14 12:13:52;;;;;;;0.90;0.80;;;20.50;54.10;;;;;;5093565;28;20415;-69
2024/01/14 12:16:18;;;;;;;0.93;0.83;;;20.50;54.10;;;;;;5093790;28;20419;-70
2024/01/14 12:18:44;;;;;;;1.00;0.70;;;20.50;54.10;;;;;;5093500;28;20213;-69
2024/01/14 12:21:09;;;;;;;0.93;0.80;;;20.50;54.10;;;;;;5093761;28;20802;-69
2024/01/14 12:23:35;;;;;;;1.20;0.90;;;20.40;54.00;;;;;;5093503;28;20806;-70
2024/01/14 12:26:04;;;;;;;1.00;0.80;;;20.50;54.10;;;;;;5093456;28;20177;-70
2024/01/14 12:28:31;;;;;;;0.93;0.70;;;20.50;54.10;;;;;;5093380;28;20186;-68
2024/01/14 12:30:57;;;;;;;0.90;0.70;;;20.50;54.10;;;;;;5093403;28;20833;-69
2024/01/14 12:33:23;;;;;;;1.00;0.90;;;20.50;54.10;;;;;;5093655;28;20898;-69
2024/01/14 12:35:48;;;;;;;1.30;0.80;;;20.50;54.10;;;;;;5093228;28;20419;-71
2024/01/14 12:38:14;;;;;;;1.40;0.83;;;20.40;54.10;;;;;;5093464;28;20636;-69
2024/01/14 12:40:40;;;;;;;0.80;0.60;;;20.40;54.10;;;;;;5092551;28;20173;-69
2024/01/14 12:43:09;;;;;;;1.00;0.70;;;20.50;54.10;;;;;;5092874;28;20194;-68
2024/01/14 12:45:35;;;;;;;1.00;0.90;;;20.40;54.10;;;;;;5092966;28;20170;-70